Time;durP1;ratioP1;P1;durP2;ratioP2;P2;SDS_P1;SDS_P2;PMS_P1;PMS_P2;Temp;Humidity;BMP_temperature;BMP_pressure;BME280_temperature;BME280_humidity;BME280_pressure;Samples;Min_cycle;Max_cycle;Signal;HPM_P1;HPM_P2
2022/02/20 05:06:52;;;;;;;4.03;2.10;;;;;;;9.49;54.05;98898.84;6860601;28;20694;-74
2022/02/20 05:10:13;;;;;;;3.80;2.43;;;;;;;9.67;53.84;98889.25;6861827;28;20251;-75
2022/02/20 05:13:35;;;;;;;2.43;2.13;;;;;;;10.12;52.95;98898.66;6835548;28;20225;-74
2022/02/20 05:16:57;;;;;;;1.60;1.50;;;;;;;9.85;53.30;98912.97;6835842;29;20219;-74
2022/02/20 05:20:18;;;;;;;3.10;2.57;;;;;;;10.31;52.94;98924.84;6835865;28;20237;-75
2022/02/20 05:23:41;;;;;;;2.37;1.93;;;;;;;10.04;53.32;98894.25;6854815;28;20212;-75
2022/02/20 05:27:03;;;;;;;1.83;1.73;;;;;;;9.91;53.52;98921.09;6862035;28;20213;-75
2022/02/20 05:30:25;;;;;;;3.33;1.93;;;;;;;9.75;53.87;98899.03;6862165;28;20236;-75
2022/02/20 05:33:47;;;;;;;3.20;2.20;;;;;;;9.87;53.56;98884.00;6861803;28;20209;-75
2022/02/20 05:37:08;;;;;;;3.47;1.93;;;;;;;9.88;53.31;98917.97;6853496;28;20206;-75
2022/02/20 05:40:33;;;;;;;1.87;1.40;;;;;;;9.69;53.68;98880.97;6835251;29;20233;-75
2022/02/20 05:43:54;;;;;;;2.20;1.87;;;;;;;9.60;54.81;98933.28;6835025;29;20244;-75
2022/02/20 05:47:16;;;;;;;2.97;2.03;;;;;;;10.06;53.54;98910.22;6835446;28;20209;-75
2022/02/20 05:50:38;;;;;;;1.50;1.50;;;;;;;9.58;54.09;98843.84;6835093;29;20216;-75
2022/02/20 05:53:59;;;;;;;1.67;1.60;;;;;;;9.48;54.06;98867.56;6861017;28;20244;-75
2022/02/20 05:57:22;;;;;;;1.70;1.60;;;;;;;9.82;53.67;98875.66;6860052;28;20211;-75
2022/02/20 06:00:44;;;;;;;1.80;1.70;;;;;;;9.28;54.84;98867.44;6861677;28;20236;-75
2022/02/20 06:04:06;;;;;;;1.90;1.50;;;;;;;10.01;53.61;98886.56;6860842;28;20236;-75
2022/02/20 06:07:28;;;;;;;1.73;1.60;;;;;;;9.81;54.79;98907.13;6861848;28;20292;-75
2022/02/20 06:10:49;;;;;;;2.57;1.80;;;;;;;9.97;54.13;98914.06;6861817;28;20224;-75
2022/02/20 06:14:12;;;;;;;4.17;1.73;;;;;;;10.10;53.82;98879.97;6863808;28;20254;-75
2022/02/20 06:17:34;;;;;;;1.80;1.70;;;;;;;9.79;54.77;98900.28;6855002;28;20600;-75
2022/02/20 06:20:56;;;;;;;1.77;1.67;;;;;;;9.76;54.71;98906.06;6839984;28;20268;-75
2022/02/20 06:24:17;;;;;;;1.70;1.60;;;;;;;10.38;53.06;98914.91;6839736;28;20206;-75
2022/02/20 06:27:39;;;;;;;1.77;1.60;;;;;;;9.75;53.00;98861.34;6840861;28;20226;-75
2022/02/20 06:31:02;;;;;;;2.70;1.80;;;;;;;10.07;52.67;98922.66;6838701;28;20210;-74
2022/02/20 06:34:24;;;;;;;1.60;1.50;;;;;;;10.15;52.59;98899.06;6864847;28;20267;-75
2022/02/20 06:37:46;;;;;;;2.00;1.60;;;;;;;9.75;52.84;98874.81;6864945;28;20206;-76
2022/02/20 06:41:09;;;;;;;3.43;1.80;;;;;;;8.71;53.21;98730.69;6841907;28;20262;-75
2022/02/20 06:44:30;;;;;;;1.50;1.50;;;;;;;10.58;51.58;98934.72;6834853;28;20272;-76
2022/02/20 06:47:54;;;;;;;1.70;1.43;;;;;;;9.63;52.73;98873.69;6835913;28;20205;-75
2022/02/20 06:51:15;;;;;;;1.57;1.47;;;;;;;10.47;51.94;98952.31;6837914;29;20216;-76
2022/02/20 06:54:37;;;;;;;2.77;1.87;;;;;;;10.40;51.91;98939.81;6837505;28;20246;-76
2022/02/20 06:57:59;;;;;;;2.67;1.60;;;;;;;10.69;51.12;98940.34;6837935;29;20221;-78
2022/02/20 07:01:21;;;;;;;2.40;2.20;;;;;;;10.48;51.47;98961.22;6837400;29;20245;-75
2022/02/20 07:04:44;;;;;;;1.70;1.60;;;;;;;10.52;51.70;98951.69;6837273;28;20223;-75
2022/02/20 07:08:06;;;;;;;1.57;1.40;;;;;;;9.66;52.01;98849.06;6837934;28;20605;-75
2022/02/20 07:11:29;;;;;;;3.87;2.17;;;;;;;10.34;51.31;98946.84;6837833;28;20580;-75
2022/02/20 07:14:51;;;;;;;1.73;1.50;;;;;;;10.86;49.81;98920.06;6837100;28;20213;-76
2022/02/20 07:18:13;;;;;;;1.43;1.40;;;;;;;9.87;50.06;98838.22;6837974;28;20211;-76
2022/02/20 07:21:35;;;;;;;1.80;1.70;;;;;;;10.33;51.04;98938.97;6837165;29;20217;-75
2022/02/20 07:24:57;;;;;;;1.70;1.60;;;;;;;10.82;50.25;98978.16;6835696;28;20286;-75
2022/02/20 07:28:19;;;;;;;1.73;1.47;;;;;;;10.12;52.23;98980.31;6837530;29;20582;-75
2022/02/20 07:31:40;;;;;;;1.50;1.40;;;;;;;10.36;51.78;98978.97;6835902;28;20217;-77
2022/02/20 07:35:03;;;;;;;1.50;1.40;;;;;;;10.22;52.03;98979.94;6857226;28;20276;-76
2022/02/20 07:38:26;;;;;;;2.20;2.00;;;;;;;9.71;51.38;98803.53;6861993;28;20245;-75
2022/02/20 07:41:48;;;;;;;1.70;1.50;;;;;;;10.79;51.17;98967.78;6859043;28;20200;-75
2022/02/20 07:45:11;;;;;;;1.73;1.50;;;;;;;10.23;51.04;98871.13;6863360;28;20209;-76
2022/02/20 07:48:33;;;;;;;1.90;1.60;;;;;;;11.20;50.50;98962.25;6863167;28;20205;-76
2022/02/20 07:51:55;;;;;;;2.37;1.90;;;;;;;11.42;49.66;98963.75;6860699;28;20233;-77
2022/02/20 07:55:18;;;;;;;2.07;1.70;;;;;;;10.93;50.22;98955.16;6863194;28;20209;-76
2022/02/20 07:58:40;;;;;;;1.27;1.27;;;;;;;10.91;49.72;98914.91;6862942;28;20224;-76
2022/02/20 08:02:02;;;;;;;1.63;1.53;;;;;;;10.97;49.70;98907.84;6851449;28;20318;-75
2022/02/20 08:05:23;;;;;;;1.87;1.70;;;;;;;10.88;49.64;98863.22;6835986;28;20218;-75
2022/02/20 08:08:46;;;;;;;1.40;1.30;;;;;;;11.14;50.19;98946.88;6839310;28;20710;-77
2022/02/20 08:12:10;;;;;;;1.93;1.83;;;;;;;11.08;49.22;98845.19;6837067;29;20222;-76
2022/02/20 08:15:31;;;;;;;2.40;1.50;;;;;;;11.51;48.59;98938.22;6835575;28;20350;-76
2022/02/20 08:18:56;;;;;;;2.10;1.90;;;;;;;11.73;48.40;98947.78;6808143;29;20695;-76
2022/02/20 08:22:18;;;;;;;1.73;1.60;;;;;;;10.84;50.50;98942.88;6809781;29;20673;-78
2022/02/20 08:25:40;;;;;;;2.20;1.60;;;;;;;10.25;49.41;98753.19;6808775;29;20220;-79
2022/02/20 08:29:03;;;;;;;2.00;1.47;;;;;;;10.24;49.71;98767.72;6830249;28;20282;-77
2022/02/20 08:32:26;;;;;;;1.63;1.53;;;;;;;11.46;47.69;98841.63;6828951;28;20680;-76
2022/02/20 08:35:47;;;;;;;2.10;1.70;;;;;;;11.84;48.12;98945.28;6825578;28;20220;-76
2022/02/20 08:39:09;;;;;;;2.40;1.60;;;;;;;11.15;48.46;98892.72;6817921;29;20230;-76
2022/02/20 08:42:31;;;;;;;1.93;1.50;;;;;;;11.93;48.00;98965.63;6825093;29;20237;-74
2022/02/20 08:45:54;;;;;;;3.47;2.07;;;;;;;11.18;47.98;98861.78;6845717;28;20228;-75
2022/02/20 08:49:15;;;;;;;2.77;2.00;;;;;;;11.34;49.07;98956.66;6844714;28;20217;-75
2022/02/20 08:52:38;;;;;;;2.13;1.87;;;;;;;11.08;49.15;98953.09;6850766;28;20687;-74
2022/02/20 08:55:59;;;;;;;2.93;1.77;;;;;;;11.51;48.55;98954.41;6836577;29;20211;-75
2022/02/20 08:59:21;;;;;;;1.53;1.43;;;;;;;12.12;47.18;98950.44;6836766;28;20226;-74
2022/02/20 09:02:44;;;;;;;1.70;1.60;;;;;;;11.59;47.49;98928.06;6835889;28;20664;-74
2022/02/20 09:06:06;;;;;;;2.80;1.80;;;;;;;11.30;47.90;98879.03;6807626;29;20321;-74
2022/02/20 09:09:28;;;;;;;2.93;1.67;;;;;;;11.97;47.37;98947.13;6844745;28;20236;-74
2022/02/20 09:12:50;;;;;;;1.77;1.67;;;;;;;12.06;47.25;98968.34;6833367;28;20233;-75
2022/02/20 09:16:13;;;;;;;3.87;1.67;;;;;;;11.37;48.66;98944.63;6846555;28;20796;-75
2022/02/20 09:19:36;;;;;;;5.13;1.50;;;;;;;12.36;46.60;98956.00;6843103;28;20228;-74
2022/02/20 09:22:58;;;;;;;1.70;1.30;;;;;;;11.32;48.18;98945.25;6858524;28;20367;-74
2022/02/20 09:26:19;;;;;;;2.10;1.70;;;;;;;12.23;46.82;98941.69;6849935;28;20219;-74
2022/02/20 09:29:41;;;;;;;2.90;1.83;;;;;;;11.33;47.58;98897.53;6848171;28;20226;-74
2022/02/20 09:33:03;;;;;;;2.10;1.50;;;;;;;12.14;47.04;98960.00;6833925;28;20372;-74
2022/02/20 09:36:27;;;;;;;1.70;1.60;;;;;;;11.91;46.81;98945.25;6852463;28;20227;-74
2022/02/20 09:39:49;;;;;;;2.53;1.60;;;;;;;12.18;46.10;98952.28;6874455;23;20244;-74
2022/02/20 09:43:13;;;;;;;3.33;1.80;;;;;;;11.93;47.06;98954.00;6844151;28;20264;-74
2022/02/20 09:46:35;;;;;;;1.50;1.40;;;;;;;12.53;45.68;98942.81;6833217;28;20264;-74
2022/02/20 09:49:59;;;;;;;1.47;1.40;;;;;;;11.92;46.40;98926.16;6836513;28;20241;-74
2022/02/20 09:53:23;;;;;;;2.70;1.77;;;;;;;12.44;45.85;98930.56;6839214;28;20229;-74
2022/02/20 09:56:44;;;;;;;2.00;1.53;;;;;;;13.18;44.22;98934.41;6839990;28;20201;-74
2022/02/20 10:00:07;;;;;;;2.33;1.60;;;;;;;12.40;44.83;98859.88;6840190;28;20242;-74
2022/02/20 10:03:34;;;;;;;1.40;1.40;;;;;;;12.99;44.59;98925.34;6840658;29;20249;-74
2022/02/20 10:06:55;;;;;;;1.57;1.47;;;;;;;13.10;44.69;98921.94;6839860;29;20574;-74
2022/02/20 10:10:21;;;;;;;1.33;1.23;;;;;;;13.06;44.66;98923.44;6839559;28;20618;-74
2022/02/20 10:13:43;;;;;;;2.77;1.40;;;;;;;13.05;44.31;98905.53;6838833;28;20265;-74
2022/02/20 10:17:12;;;;;;;1.63;1.40;;;;;;;13.15;44.34;98913.19;6839054;28;20213;-74
2022/02/20 10:20:34;;;;;;;2.07;1.63;;;;;;;13.14;44.37;98895.25;6838734;28;20236;-74
2022/02/20 10:23:58;;;;;;;2.27;1.43;;;;;;;12.69;44.92;98909.88;6838309;29;20213;-74
2022/02/20 10:27:21;;;;;;;1.30;1.20;;;;;;;12.75;45.44;98941.50;6838957;29;20202;-74
2022/02/20 10:30:43;;;;;;;1.60;1.30;;;;;;;12.59;45.89;98882.47;6838166;29;20210;-74
2022/02/20 10:34:05;;;;;;;2.40;1.70;;;;;;;13.26;44.96;98926.84;6839245;29;20288;-74
2022/02/20 10:37:32;;;;;;;3.63;1.80;;;;;;;13.03;45.78;98933.84;6838681;28;20209;-74
2022/02/20 10:40:55;;;;;;;1.50;1.40;;;;;;;12.91;45.12;98887.69;6838378;29;20756;-75
2022/02/20 10:44:18;;;;;;;1.70;1.60;;;;;;;13.20;45.04;98916.03;6838493;29;20691;-73
2022/02/20 10:47:42;;;;;;;1.77;1.67;;;;;;;13.53;43.82;98876.00;6837124;29;20206;-73
2022/02/20 10:51:04;;;;;;;2.50;1.60;;;;;;;13.71;43.38;98914.81;6838764;28;20245;-78
2022/02/20 10:54:26;;;;;;;1.40;1.30;;;;;;;13.61;44.10;98886.53;6838407;29;20264;-71
2022/02/20 10:57:49;;;;;;;3.67;2.00;;;;;;;13.73;43.93;98884.75;6837733;29;20213;-75
2022/02/20 11:01:22;;;;;;;1.80;1.70;;;;;;;14.54;42.84;98887.03;6837743;28;20234;-71
2022/02/20 11:04:44;;;;;;;1.73;1.63;;;;;;;14.14;43.97;98874.94;6837502;28;20259;-72
2022/02/20 11:08:07;;;;;;;4.60;1.60;;;;;;;13.77;44.12;98816.38;6837350;29;20212;-73
2022/02/20 11:11:40;;;;;;;1.27;1.27;;;;;;;13.83;43.50;98833.59;6837826;28;20263;-73
2022/02/20 11:15:03;;;;;;;1.13;1.10;;;;;;;14.22;42.45;98850.25;6837832;28;20236;-73
2022/02/20 11:18:27;;;;;;;1.60;1.20;;;;;;;13.90;43.19;98856.03;6837361;29;20238;-74
2022/02/20 11:21:53;;;;;;;1.77;1.50;;;;;;;13.76;43.37;98843.69;6837645;29;20231;-73
2022/02/20 11:25:14;;;;;;;2.10;1.80;;;;;;;12.82;44.34;98788.06;6837310;28;20234;-73
2022/02/20 11:28:39;;;;;;;1.53;1.20;;;;;;;13.50;44.08;98824.97;6837701;28;20198;-74
2022/02/20 11:32:01;;;;;;;4.43;2.97;;;;;;;13.43;44.23;98797.13;6837611;29;20222;-71
2022/02/20 11:35:24;;;;;;;1.63;1.33;;;;;;;13.22;45.39;98830.03;6837263;29;20210;-73
2022/02/20 11:39:05;;;;;;;7.13;3.40;;;;;;;13.78;44.21;98830.72;6837479;28;20206;-74
2022/02/20 11:42:26;;;;;;;1.63;1.53;;;;;;;14.06;43.90;98817.50;6837986;28;20258;-73
2022/02/20 11:46:03;;;;;;;2.10;2.00;;;;;;;14.08;42.93;98824.34;6837328;28;20544;-73
2022/02/20 11:49:30;;;;;;;2.90;2.60;;;;;;;13.50;44.32;98777.06;6836809;28;20208;-73
2022/02/20 11:52:55;;;;;;;1.50;1.40;;;;;;;13.09;44.47;98716.47;6836816;29;20290;-75
2022/02/20 11:56:16;;;;;;;1.23;1.13;;;;;;;13.72;43.62;98762.03;6837589;29;20210;-77
2022/02/20 11:59:38;;;;;;;2.00;1.10;;;;;;;13.14;44.01;98716.59;6838160;29;20258;-76
2022/02/20 12:03:08;;;;;;;1.67;1.57;;;;;;;13.22;43.79;98686.53;6849697;28;20203;-77
2022/02/20 12:06:35;;;;;;;1.27;1.27;;;;;;;13.57;43.95;98737.16;6834818;28;20212;-77
2022/02/20 12:10:32;;;;;;;1.13;1.10;;;;;;;13.69;44.12;98757.03;6836299;28;20236;-77
2022/02/20 12:13:56;;;;;;;1.40;1.30;;;;;;;13.68;43.81;98719.34;6821707;28;20463;-78
2022/02/20 12:17:17;;;;;;;1.37;1.23;;;;;;;14.37;43.00;98777.47;6834636;28;20232;-77
2022/02/20 12:20:47;;;;;;;4.10;2.60;;;;;;;13.43;43.64;98688.78;6835619;28;20238;-76
2022/02/20 12:24:16;;;;;;;4.93;1.57;;;;;;;13.85;42.37;98599.25;6833984;28;20267;-77
2022/02/20 12:27:39;;;;;;;1.30;1.13;;;;;;;14.31;42.66;98739.59;6824980;29;20220;-77
2022/02/20 12:31:08;;;;;;;1.27;1.17;;;;;;;13.54;43.95;98718.66;6808150;29;20232;-77
2022/02/20 12:34:50;;;;;;;2.17;1.50;;;;;;;14.37;43.10;98755.78;6805082;29;20677;-77
2022/02/20 12:38:12;;;;;;;2.47;1.53;;;;;;;14.75;42.38;98763.56;6811066;28;20309;-77
2022/02/20 12:41:37;;;;;;;1.40;1.30;;;;;;;13.68;43.10;98667.88;6833135;28;20235;-74
2022/02/20 12:45:12;;;;;;;1.37;1.37;;;;;;;14.26;43.21;98734.03;6834188;29;20205;-74
2022/02/20 12:48:34;;;;;;;1.70;1.60;;;;;;;14.29;43.05;98739.81;6835103;28;20212;-74
2022/02/20 12:52:02;;;;;;;1.20;1.10;;;;;;;13.94;43.59;98684.63;6831007;29;20212;-74
2022/02/20 12:55:24;;;;;;;1.97;1.33;;;;;;;14.07;42.34;98632.06;6834214;28;20245;-74
2022/02/20 12:58:50;;;;;;;1.30;1.23;;;;;;;14.26;43.37;98724.00;6834692;28;20243;-75
2022/02/20 13:02:13;;;;;;;1.97;1.50;;;;;;;13.15;43.64;98550.44;6834090;28;20308;-76
2022/02/20 13:05:36;;;;;;;1.10;1.10;;;;;;;14.36;43.77;98713.44;6834951;28;20214;-75
2022/02/20 13:08:59;;;;;;;1.60;1.50;;;;;;;14.02;42.61;98637.34;6834443;28;20238;-75
2022/02/20 13:12:22;;;;;;;1.50;1.40;;;;;;;14.74;42.78;98735.59;6834677;28;20678;-76
2022/02/20 13:15:47;;;;;;;1.13;1.10;;;;;;;13.33;43.42;98558.53;6834059;28;20232;-75
2022/02/20 13:19:10;;;;;;;1.30;1.20;;;;;;;13.18;44.58;98596.00;6834027;28;20853;-83
2022/02/20 13:22:35;;;;;;;1.20;1.10;;;;;;;13.79;43.64;98662.50;6797560;28;20239;-86
2022/02/20 13:26:05;;;;;;;1.57;1.47;;;;;;;13.59;43.86;98596.94;6834505;28;20208;-85
2022/02/20 13:29:27;;;;;;;2.03;1.23;;;;;;;13.94;43.70;98635.00;6833581;28;20207;-83
2022/02/20 13:32:49;;;;;;;1.37;1.27;;;;;;;14.51;43.58;98696.75;6834183;28;20211;-83
2022/02/20 13:36:12;;;;;;;1.60;1.20;;;;;;;13.79;43.42;98578.50;6834165;28;20681;-83
2022/02/20 13:39:34;;;;;;;1.20;1.20;;;;;;;14.14;42.73;98575.88;6833293;28;20245;-83
2022/02/20 13:43:01;;;;;;;2.07;1.50;;;;;;;14.88;42.49;98657.47;6833865;28;20291;-83
2022/02/20 13:46:35;;;;;;;1.77;1.37;;;;;;;14.55;41.95;98548.69;6833490;28;20364;-83
2022/02/20 13:49:57;;;;;;;1.20;1.10;;;;;;;13.21;43.39;98461.00;6833934;28;20218;-84
2022/02/20 13:53:23;;;;;;;1.50;1.40;;;;;;;13.90;43.58;98555.19;6833564;28;20285;-85
2022/02/20 13:56:48;;;;;;;1.40;1.30;;;;;;;13.93;45.80;98592.69;6833396;28;20218;-73
2022/02/20 14:00:11;;;;;;;6.57;1.30;;;;;;;14.29;44.00;98638.66;6833950;29;20691;-75
2022/02/20 14:03:36;;;;;;;1.90;1.30;;;;;;;14.11;44.45;98633.28;6833590;28;20662;-74
2022/02/20 14:06:59;;;;;;;1.43;1.00;;;;;;;14.33;44.38;98672.41;6833235;28;20609;-75
2022/02/20 14:10:22;;;;;;;2.77;1.60;;;;;;;14.17;45.02;98665.69;6833060;28;20248;-74
2022/02/20 14:13:44;;;;;;;1.73;1.63;;;;;;;14.27;45.15;98659.78;6833443;28;20674;-74
2022/02/20 14:17:06;;;;;;;1.43;1.33;;;;;;;14.31;44.74;98663.66;6833496;28;20210;-75
2022/02/20 14:20:29;;;;;;;1.30;1.20;;;;;;;14.56;44.29;98659.69;6833350;28;20230;-74
2022/02/20 14:23:52;;;;;;;2.47;1.33;;;;;;;14.15;45.39;98635.28;6833336;28;20210;-74
2022/02/20 14:27:15;;;;;;;1.80;1.40;;;;;;;14.19;44.44;98567.88;6833439;28;20731;-74
2022/02/20 14:30:39;;;;;;;1.47;1.30;;;;;;;14.16;44.94;98590.84;6833365;29;20542;-74
2022/02/20 14:34:01;;;;;;;1.27;1.23;;;;;;;14.38;44.80;98635.38;6833282;28;20694;-74
2022/02/20 14:37:33;;;;;;;1.13;1.13;;;;;;;14.64;44.43;98626.78;6838503;28;20234;-74
2022/02/20 14:40:55;;;;;;;1.53;1.43;;;;;;;14.98;43.78;98612.38;6837473;28;20233;-74
2022/02/20 14:44:18;;;;;;;0.97;0.97;;;;;;;13.88;45.71;98611.50;6838175;29;20217;-74
2022/02/20 14:47:40;;;;;;;1.30;1.20;;;;;;;13.98;45.93;98606.38;6837251;28;20222;-82
2022/02/20 14:51:04;;;;;;;1.40;1.30;;;;;;;13.92;45.79;98582.91;6838058;28;20206;-74
2022/02/20 14:54:26;;;;;;;1.07;1.07;;;;;;;13.09;46.40;98475.56;6837987;29;20240;-87
2022/02/20 14:57:48;;;;;;;1.40;1.30;;;;;;;13.87;45.98;98586.28;6838425;28;20579;-84
2022/02/20 15:01:11;;;;;;;1.53;1.40;;;;;;;13.52;46.10;98514.91;6837685;28;20235;-84
2022/02/20 15:04:33;;;;;;;1.60;1.40;;;;;;;13.38;46.18;98480.13;6855212;28;20575;-74
2022/02/20 15:07:54;;;;;;;1.00;1.00;;;;;;;14.04;46.08;98578.34;6863784;28;20230;-74
2022/02/20 15:11:16;;;;;;;1.30;1.20;;;;;;;13.65;46.22;98505.78;6864402;28;20207;-74
2022/02/20 15:14:38;;;;;;;2.27;1.20;;;;;;;14.40;45.16;98553.78;6863452;28;20212;-74
2022/02/20 15:18:01;;;;;;;3.17;1.30;;;;;;;13.60;45.45;98456.88;6837478;28;20241;-74
2022/02/20 15:21:23;;;;;;;1.17;1.17;;;;;;;13.73;46.42;98541.50;6858852;28;20267;-74
2022/02/20 15:24:46;;;;;;;1.00;1.00;;;;;;;14.21;45.74;98552.22;6845612;28;20243;-74
2022/02/20 15:28:08;;;;;;;1.30;1.30;;;;;;;14.33;45.55;98548.44;6863792;28;20214;-74
2022/02/20 15:31:29;;;;;;;1.30;1.30;;;;;;;14.55;44.73;98551.41;6863142;28;20222;-74
2022/02/20 15:34:53;;;;;;;1.50;1.40;;;;;;;13.59;46.35;98512.94;6863182;28;20216;-74
2022/02/20 15:38:15;;;;;;;1.33;1.17;;;;;;;14.05;46.24;98559.09;6863711;28;20211;-74
2022/02/20 15:41:36;;;;;;;1.27;1.17;;;;;;;14.55;45.10;98543.25;6863372;28;20234;-74
2022/02/20 15:44:58;;;;;;;1.17;1.17;;;;;;;14.06;45.85;98558.06;6860277;28;20213;-74
2022/02/20 15:48:22;;;;;;;1.03;1.03;;;;;;;14.27;45.15;98507.91;6819316;28;20288;-75
2022/02/20 15:51:45;;;;;;;1.33;1.23;;;;;;;13.95;46.24;98544.47;6814569;29;20294;-74
2022/02/20 15:55:08;;;;;;;1.27;1.20;;;;;;;13.86;46.45;98506.03;6836185;29;20300;-74
2022/02/20 15:58:30;;;;;;;1.10;1.10;;;;;;;13.47;46.35;98421.88;6835928;28;20213;-74
2022/02/20 16:01:52;;;;;;;2.13;1.47;;;;;;;13.84;45.85;98472.09;6835478;28;20229;-74
2022/02/20 16:05:13;;;;;;;1.70;1.60;;;;;;;13.90;46.68;98487.44;6820228;29;20230;-74
2022/02/20 16:08:36;;;;;;;1.03;1.03;;;;;;;13.91;46.75;98476.38;6809340;29;20222;-74
2022/02/20 16:11:59;;;;;;;1.23;1.13;;;;;;;13.66;46.74;98436.97;6809401;29;20216;-74
2022/02/20 16:15:22;;;;;;;1.77;1.30;;;;;;;13.70;47.45;98460.66;6815005;28;20221;-74
2022/02/20 16:18:44;;;;;;;1.40;1.30;;;;;;;14.02;46.49;98445.75;6834977;28;20601;-75
2022/02/20 16:22:05;;;;;;;1.30;1.20;;;;;;;13.94;46.63;98439.84;6836380;28;20231;-78
2022/02/20 16:25:29;;;;;;;1.40;1.30;;;;;;;12.57;48.16;98316.63;6836956;29;20580;-83
2022/02/20 16:28:52;;;;;;;1.20;1.20;;;;;;;12.41;48.89;98309.16;6837046;29;20202;-88
2022/02/20 16:32:14;;;;;;;2.30;1.20;;;;;;;12.87;47.43;98312.03;6837275;29;20218;-89
2022/02/20 16:35:36;;;;;;;1.30;1.20;;;;;;;13.21;48.57;98398.75;6836630;28;20570;-85
2022/02/20 16:38:59;;;;;;;2.23;1.33;;;;;;;12.43;49.16;98315.16;6836467;29;20250;-85
2022/02/20 16:42:22;;;;;;;1.00;1.00;;;;;;;13.21;49.14;98397.94;6836226;28;20690;-76
2022/02/20 16:45:46;;;;;;;2.00;1.10;;;;;;;13.34;48.35;98405.84;6822187;29;20582;-75
2022/02/20 16:49:08;;;;;;;1.57;1.10;;;;;;;13.74;47.40;98402.25;6827641;28;20229;-75
2022/02/20 16:52:29;;;;;;;2.33;1.20;;;;;;;13.58;47.72;98419.19;6827309;29;20205;-76
2022/02/20 16:55:53;;;;;;;2.00;1.23;;;;;;;13.54;47.88;98401.75;6829799;28;20347;-76
2022/02/20 16:59:19;;;;;;;1.40;1.30;;;;;;;13.21;48.54;98409.56;6811644;29;20661;-78
2022/02/20 17:02:40;;;;;;;1.43;1.33;;;;;;;12.63;48.78;98348.97;6809778;29;20239;-77
2022/02/20 17:06:04;;;;;;;1.80;1.70;;;;;;;13.45;48.26;98424.00;6809916;29;20591;-79
2022/02/20 17:09:26;;;;;;;1.07;1.07;;;;;;;13.58;47.83;98408.34;6809179;29;20211;-78
2022/02/20 17:12:54;;;;;;;1.00;1.00;;;;;;;13.58;47.66;98402.94;6809391;29;20265;-78
2022/02/20 17:16:17;;;;;;;1.23;1.23;;;;;;;13.15;47.21;98302.22;6809133;29;20626;-76
2022/02/20 17:19:39;;;;;;;1.70;1.60;;;;;;;13.20;48.29;98388.97;6825899;28;20203;-76
2022/02/20 17:23:01;;;;;;;1.43;1.33;;;;;;;13.09;46.80;98302.34;6847359;28;20682;-76
2022/02/20 17:26:22;;;;;;;1.20;1.20;;;;;;;13.08;47.57;98341.28;6860392;28;20239;-75
2022/02/20 17:29:44;;;;;;;1.10;1.10;;;;;;;12.99;47.31;98283.16;6858831;28;20257;-75
2022/02/20 17:33:07;;;;;;;1.97;1.20;;;;;;;13.82;46.70;98392.94;6826433;28;20286;-75
2022/02/20 17:36:29;;;;;;;1.50;1.40;;;;;;;13.66;47.29;98393.63;6823962;28;20202;-74
2022/02/20 17:39:50;;;;;;;2.67;1.37;;;;;;;13.88;46.31;98379.28;6820447;29;20234;-74
2022/02/20 17:43:13;;;;;;;1.00;1.00;;;;;;;13.66;46.86;98385.50;6825545;29;20262;-74
2022/02/20 17:46:38;;;;;;;3.10;2.80;;;;;;;13.27;46.82;98340.16;6827980;28;20223;-83
2022/02/20 17:50:01;;;;;;;2.57;1.80;;;;;;;13.16;47.25;98338.25;6831256;28;20210;-84
2022/02/20 17:53:22;;;;;;;1.30;1.20;;;;;;;13.88;46.65;98402.84;6833458;28;20214;-81
2022/02/20 17:56:46;;;;;;;1.90;1.80;;;;;;;13.06;46.70;98317.16;6833563;28;20686;-82
2022/02/20 18:00:10;;;;;;;2.10;2.00;;;;;;;13.29;48.35;98384.84;6833625;28;20209;-80
2022/02/20 18:03:33;;;;;;;2.97;1.90;;;;;;;13.68;48.95;98388.84;6833485;28;20681;-82
2022/02/20 18:06:56;;;;;;;1.30;1.20;;;;;;;13.10;49.03;98345.41;6833884;28;20211;-83
2022/02/20 18:10:22;;;;;;;2.00;1.63;;;;;;;12.70;48.76;98305.63;6835988;28;20269;-82
2022/02/20 18:13:45;;;;;;;3.37;2.77;;;;;;;13.16;48.83;98354.50;6839012;28;20212;-82
2022/02/20 18:17:07;;;;;;;1.10;1.10;;;;;;;13.27;47.85;98329.31;6838566;28;20811;-82
2022/02/20 18:20:30;;;;;;;1.90;1.80;;;;;;;12.76;47.69;98229.78;6838518;28;20225;-82
2022/02/20 18:23:54;;;;;;;1.33;1.33;;;;;;;13.38;47.69;98364.53;6838370;28;20232;-83
2022/02/20 18:27:17;;;;;;;1.40;1.30;;;;;;;13.31;48.21;98379.22;6838491;28;20208;-83
2022/02/20 18:30:40;;;;;;;1.60;1.50;;;;;;;13.04;48.14;98294.91;6838275;28;20207;-83
2022/02/20 18:34:02;;;;;;;1.10;1.10;;;;;;;13.07;47.66;98286.34;6838303;29;20209;-73
2022/02/20 18:37:23;;;;;;;1.17;1.17;;;;;;;13.05;48.26;98310.09;6838264;29;20217;-74
2022/02/20 18:40:47;;;;;;;1.30;1.30;;;;;;;13.97;47.00;98339.06;6838130;29;20237;-73
2022/02/20 18:44:12;;;;;;;1.80;1.43;;;;;;;13.32;48.48;98296.94;6826959;28;20230;-74
2022/02/20 18:47:33;;;;;;;1.13;1.13;;;;;;;13.55;47.78;98299.66;6839535;29;20220;-74
2022/02/20 18:50:58;;;;;;;1.60;1.50;;;;;;;12.72;48.57;98220.50;6839433;29;20209;-75
2022/02/20 18:54:20;;;;;;;1.53;1.43;;;;;;;12.88;49.12;98273.94;6838178;29;20219;-74
2022/02/20 18:57:43;;;;;;;1.77;1.67;;;;;;;13.08;49.01;98300.69;6838930;28;20213;-74
2022/02/20 19:01:05;;;;;;;1.20;1.20;;;;;;;12.52;49.59;98229.97;6839500;28;20237;-85
2022/02/20 19:04:29;;;;;;;1.80;1.70;;;;;;;12.61;49.08;98215.88;6838471;29;20230;-85
2022/02/20 19:07:50;;;;;;;1.80;1.70;;;;;;;13.30;47.85;98245.75;6838907;29;20240;-85
2022/02/20 19:11:12;;;;;;;1.50;1.40;;;;;;;12.49;48.26;98173.63;6839318;29;20211;-86
2022/02/20 19:14:35;;;;;;;2.40;2.20;;;;;;;13.70;47.97;98318.97;6838905;29;20335;-74
2022/02/20 19:17:59;;;;;;;1.30;1.30;;;;;;;13.46;47.03;98204.41;6840881;28;20217;-74
2022/02/20 19:21:20;;;;;;;1.50;1.40;;;;;;;13.64;47.02;98260.31;6837953;28;20211;-74
2022/02/20 19:24:43;;;;;;;1.10;1.10;;;;;;;13.40;48.34;98310.16;6837938;28;20221;-74
2022/02/20 19:28:05;;;;;;;1.40;1.40;;;;;;;12.94;47.95;98212.63;6838529;29;20219;-74
2022/02/20 19:31:29;;;;;;;1.43;1.33;;;;;;;13.22;47.69;98234.44;6838022;28;20602;-74
2022/02/20 19:34:50;;;;;;;1.00;0.97;;;;;;;13.73;47.01;98267.84;6837685;29;20555;-73
2022/02/20 19:38:14;;;;;;;1.20;1.10;;;;;;;13.69;47.85;98304.59;6837390;28;20667;-73
2022/02/20 19:41:36;;;;;;;2.07;1.93;;;;;;;13.96;47.08;98299.47;6837558;29;20615;-73
2022/02/20 19:44:58;;;;;;;1.40;1.30;;;;;;;13.64;47.27;98230.53;6836931;29;20221;-74
2022/02/20 19:48:24;;;;;;;1.80;1.53;;;;;;;14.01;47.14;98297.72;6836770;29;20210;-74
2022/02/20 19:51:46;;;;;;;1.30;1.20;;;;;;;13.52;48.39;98281.19;6833578;29;20670;-73
2022/02/20 19:55:08;;;;;;;1.40;1.30;;;;;;;13.46;47.11;98201.69;6836917;29;20228;-74
2022/02/20 19:58:34;;;;;;;1.17;1.13;;;;;;;14.01;46.91;98299.59;6835927;29;20234;-73
2022/02/20 20:01:59;;;;;;;1.20;1.10;;;;;;;13.14;48.64;98249.16;6837351;29;20384;-74
2022/02/20 20:05:22;;;;;;;1.30;1.20;;;;;;;13.21;49.17;98265.28;6833114;29;20211;-74
2022/02/20 20:08:44;;;;;;;1.50;1.30;;;;;;;13.41;49.53;98271.16;6834182;28;20709;-73
2022/02/20 20:12:06;;;;;;;1.50;1.40;;;;;;;13.33;49.83;98272.34;6836566;29;20214;-73
2022/02/20 20:15:28;;;;;;;1.20;1.20;;;;;;;13.26;49.52;98231.03;6836216;29;20211;-74
2022/02/20 20:18:50;;;;;;;1.40;1.30;;;;;;;13.08;50.29;98223.03;6836461;29;20204;-73
2022/02/20 20:22:13;;;;;;;1.40;1.30;;;;;;;12.19;50.44;98067.47;6836081;29;20228;-74
2022/02/20 20:25:34;;;;;;;1.50;1.40;;;;;;;13.52;49.41;98194.50;6836207;29;20255;-74
2022/02/20 20:28:56;;;;;;;1.37;1.37;;;;;;;13.42;49.36;98197.00;6830991;28;20214;-74
2022/02/20 20:32:18;;;;;;;1.40;1.40;;;;;;;13.73;48.80;98194.69;6841011;28;20239;-73
2022/02/20 20:35:40;;;;;;;1.20;1.20;;;;;;;13.49;48.91;98203.94;6821265;29;20559;-74
2022/02/20 20:39:04;;;;;;;2.73;1.27;;;;;;;13.50;48.50;98196.63;6826438;29;20217;-73
2022/02/20 20:42:25;;;;;;;2.67;1.37;;;;;;;13.49;49.00;98195.81;6835509;29;20318;-74
2022/02/20 20:45:47;;;;;;;1.57;1.47;;;;;;;13.14;49.34;98169.81;6825485;29;20229;-74
2022/02/20 20:49:09;;;;;;;1.40;1.30;;;;;;;13.67;48.48;98202.94;6829444;29;20214;-74
2022/02/20 20:52:31;;;;;;;1.30;1.30;;;;;;;13.49;48.57;98182.28;6830453;29;20679;-74
2022/02/20 20:55:54;;;;;;;2.17;1.33;;;;;;;13.64;48.06;98184.47;6834998;29;20673;-74
2022/02/20 20:59:17;;;;;;;1.33;1.33;;;;;;;13.90;47.04;98192.88;6835783;28;20214;-74
2022/02/20 21:02:39;;;;;;;1.30;1.20;;;;;;;13.30;47.78;98104.13;6834524;29;20254;-74